Aeroporto :
LOGIN :

Iscrizione | Disclaimer

   EN    FR    IT 

 










Sommario :    VFR   VFR Marginale   IFR   IFR Intensivo   IFR Molto Intensivo
Visibilità : 
Base nubi : 
>= 8 km
>= 3000ft
5 / 8 km
1000 / 3000 ft
1500m / 5 km
500 / 1000 ft
800 / 1500m
200 / 500 ft
< 800m
< 200 ft
Simboli :   Temporali  Nebbia  Neve Forte  Precipitazioni Forti  Vento > 20 kt
SIGMETs :   Varie  Temporali  Ghiacco  Turbolenza  Onda orograficha  Ceneri Vulcaniche






- Altitudine del aeroporto : 135 ft
- Codice IATA : BOJ


LBBG - Burgas

ULTIMO METAR :
  • 290330Z 27007KT CAVOK 10/03 Q1007 NOSIG

METARs OBSOLETI :
  • 290300Z 24004KT 190V270 CAVOK 10/04 Q1007 NOSIG
  • 290230Z 27006KT CAVOK 11/03 Q1007 NOSIG
  • 290200Z 29008KT CAVOK 11/03 Q1007 NOSIG
  • 290130Z 27005KT 230V290 CAVOK 11/03 Q1007 NOSIG
  • 290100Z 25005KT CAVOK 11/03 Q1007 NOSIG

TAF TAF LBBG
Valido dal 29 a 00 ore il 30 a 00 ore UTC


282300Z 2900/2924 VRB04KT 9999 SCT040
BECMG 2902/2904 33012KT
PROB30
TEMPO 2904/2905 RA BKN040
PROB40
TEMPO 2912/2916 5000 SHRA FEW030CB BKN040
BECMG 2917/2919 27008KT CAVOK



MetMap, La meteo Aeronautica in un colpo d'occhio ! - Copyright ORBIFLY Dicembre 2007 - Disclaimer

ORBIFLY MET'MAP TEAM :

Programmazione e sviluppo : Alexandra Zaïnal
Concezione : Baudouin d'Aumeries
Aiuto per la programmazione : Marc-Olivier Méhu
Supporto tecnico e logistico : Manuel Goepfert
Aiuto per la traduzione : Arnaldo La Scala

Contatto : metmap@orbifly.com




FONTI E CREDITI :

   NOAA